createdAt,value
2023-03-29T00:01:35.975Z,98.10
2023-03-29T00:04:39.017Z,98.10
2023-03-29T00:07:41.512Z,98.00
2023-03-29T00:10:43.436Z,98.00
2023-03-29T00:13:45.881Z,98.10
2023-03-29T00:16:47.862Z,98.20
2023-03-29T00:19:49.682Z,98.20
2023-03-29T00:22:51.751Z,98.10
2023-03-29T00:25:53.981Z,98.00
2023-03-29T00:28:55.938Z,97.90
2023-03-29T00:31:57.979Z,98.00
2023-03-29T00:35:05.162Z,98.00
2023-03-29T00:38:07.114Z,97.90
2023-03-29T00:41:09.971Z,98.00
2023-03-29T00:44:59.267Z,97.90
2023-03-29T00:48:05.987Z,96.40
2023-03-29T00:51:11.706Z,98.00
2023-03-29T00:54:18.681Z,98.10
2023-03-29T00:57:22.776Z,98.40
2023-03-29T01:00:33.233Z,98.70
2023-03-29T01:03:46.794Z,98.40
2023-03-29T01:07:17.997Z,98.30
2023-03-29T01:10:36.266Z,97.50
2023-03-29T01:13:44.754Z,98.00
2023-03-29T01:16:46.733Z,98.40
2023-03-29T01:19:58.167Z,98.80
2023-03-29T01:23:34.509Z,98.60
2023-03-29T01:27:03.189Z,98.10
2023-03-29T01:30:14.336Z,98.20
2023-03-29T01:33:27.863Z,98.90
2023-03-29T01:36:38.915Z,98.80
2023-03-29T01:39:40.677Z,99.10
2023-03-29T01:42:54.255Z,99.50
2023-03-29T01:46:08.305Z,99.00
2023-03-29T01:49:17.088Z,99.50
2023-03-29T01:52:25.429Z,99.30
2023-03-29T01:55:38.337Z,99.30
2023-03-29T01:58:45.041Z,99.10
2023-03-29T02:01:52.091Z,99.40
2023-03-29T02:04:56.130Z,99.40
2023-03-29T02:08:00.452Z,99.70
2023-03-29T02:11:02.477Z,99.70
2023-03-29T02:14:04.644Z,99.90
2023-03-29T02:17:15.258Z,99.90
2023-03-29T02:20:39.355Z,99.50
2023-03-29T02:23:46.741Z,99.40
2023-03-29T02:26:49.363Z,99.90
2023-03-29T02:29:51.307Z,99.90
2023-03-29T02:33:00.619Z,99.90
2023-03-29T02:36:10.335Z,99.90
2023-03-29T02:39:15.662Z,99.90
2023-03-29T02:42:20.511Z,99.90
2023-03-29T02:45:24.093Z,99.90
2023-03-29T02:48:28.323Z,99.90
2023-03-29T02:51:33.336Z,99.90
2023-03-29T02:54:38.049Z,99.90
2023-03-29T02:57:40.998Z,99.90
2023-03-29T03:00:46.943Z,99.90
2023-03-29T03:03:50.677Z,99.90
2023-03-29T03:06:52.789Z,99.90
2023-03-29T03:09:54.627Z,99.90
2023-03-29T03:12:56.688Z,99.90
2023-03-29T03:15:58.564Z,99.90
2023-03-29T03:19:01.030Z,99.90
2023-03-29T03:22:06.223Z,99.90
2023-03-29T03:25:10.500Z,99.90
2023-03-29T03:28:12.564Z,99.90
2023-03-29T03:31:14.980Z,99.90
2023-03-29T03:34:17.545Z,99.90
2023-03-29T03:37:20.154Z,99.90
2023-03-29T03:40:22.618Z,99.90
2023-03-29T03:43:24.996Z,99.90
2023-03-29T03:46:29.371Z,99.90
2023-03-29T03:49:32.435Z,99.90
2023-03-29T03:52:35.417Z,99.90
2023-03-29T03:55:38.004Z,99.90
2023-03-29T03:58:40.659Z,99.90
2023-03-29T04:01:43.884Z,99.90
2023-03-29T04:04:46.836Z,99.90
2023-03-29T04:07:48.981Z,99.90
2023-03-29T04:10:56.141Z,99.90
2023-03-29T04:13:58.888Z,99.90
2023-03-29T04:17:01.453Z,99.90
2023-03-29T04:20:10.451Z,99.90
2023-03-29T04:23:13.334Z,99.90
2023-03-29T04:26:18.019Z,99.90
2023-03-29T04:29:20.109Z,99.90
2023-03-29T04:32:21.959Z,99.90
2023-03-29T04:35:23.965Z,99.90
2023-03-29T04:38:26.687Z,99.90
2023-03-29T04:41:29.075Z,99.90
2023-03-29T04:44:33.602Z,99.90
2023-03-29T04:47:36.775Z,99.90
2023-03-29T04:50:38.687Z,99.90
2023-03-29T04:53:45.170Z,99.90
2023-03-29T04:56:46.995Z,99.90
2023-03-29T04:59:48.856Z,99.90
2023-03-29T05:02:50.605Z,99.90
2023-03-29T05:05:52.604Z,99.90
2023-03-29T05:08:55.285Z,99.90
2023-03-29T05:11:57.100Z,99.90
2023-03-29T05:14:58.929Z,99.90
2023-03-29T05:18:00.982Z,99.90
2023-03-29T05:21:03.364Z,99.90
2023-03-29T05:24:06.370Z,99.90
2023-03-29T05:27:08.252Z,99.90
2023-03-29T05:30:11.685Z,99.90
2023-03-29T05:33:13.423Z,99.90
2023-03-29T05:36:17.035Z,99.90
2023-03-29T05:39:19.080Z,99.90
2023-03-29T05:42:22.599Z,99.90
2023-03-29T05:45:24.759Z,99.90
2023-03-29T05:48:27.271Z,99.90
2023-03-29T05:51:29.047Z,99.90
2023-03-29T05:54:30.772Z,99.90
2023-03-29T05:57:35.080Z,99.90
2023-03-29T06:00:38.598Z,99.90
2023-03-29T06:03:41.053Z,99.90
2023-03-29T06:06:43.028Z,99.90
2023-03-29T06:09:45.629Z,99.90
2023-03-29T06:12:47.761Z,99.90
2023-03-29T06:15:49.553Z,99.90
2023-03-29T06:18:51.369Z,99.90
2023-03-29T06:21:54.356Z,99.90
2023-03-29T06:24:56.762Z,99.90
2023-03-29T06:27:58.572Z,99.90
2023-03-29T06:31:02.937Z,99.90
2023-03-29T06:34:05.947Z,99.90
2023-03-29T06:37:08.494Z,99.90
2023-03-29T06:40:10.708Z,99.90
2023-03-29T06:43:12.968Z,99.90
2023-03-29T06:46:15.100Z,99.90
2023-03-29T06:49:17.305Z,99.90
2023-03-29T06:52:19.551Z,99.90
2023-03-29T06:55:22.928Z,99.90
2023-03-29T06:58:24.823Z,99.90
2023-03-29T07:01:27.125Z,99.90
2023-03-29T07:04:29.268Z,99.90
2023-03-29T07:07:44.203Z,99.90
2023-03-29T07:10:48.863Z,99.90
2023-03-29T07:13:51.306Z,99.90
2023-03-29T07:16:53.338Z,99.90
2023-03-29T07:19:55.243Z,99.90
2023-03-29T07:22:57.484Z,99.90
2023-03-29T07:26:00.041Z,99.90
2023-03-29T07:29:01.809Z,99.90
2023-03-29T07:32:04.346Z,99.90
2023-03-29T07:35:08.447Z,99.90
2023-03-29T07:38:10.677Z,99.90
2023-03-29T07:41:12.607Z,99.90
2023-03-29T07:44:14.401Z,99.90
2023-03-29T07:47:16.643Z,99.90
2023-03-29T07:50:18.565Z,99.90
2023-03-29T07:53:21.099Z,99.90
2023-03-29T07:56:23.144Z,99.90
2023-03-29T07:59:24.931Z,99.90
2023-03-29T08:02:29.962Z,99.90
2023-03-29T08:05:40.783Z,99.90
2023-03-29T08:08:43.593Z,99.90
2023-03-29T08:11:45.410Z,99.90
2023-03-29T08:14:47.263Z,99.90
2023-03-29T08:17:49.066Z,99.90
2023-03-29T08:20:51.894Z,99.90
2023-03-29T08:23:53.645Z,99.90
2023-03-29T08:26:56.153Z,99.90
2023-03-29T08:29:57.947Z,99.90
2023-03-29T08:32:59.785Z,99.90
2023-03-29T08:36:02.096Z,99.90
2023-03-29T08:39:04.120Z,99.90
2023-03-29T08:42:09.050Z,99.90
2023-03-29T08:45:18.864Z,99.90
2023-03-29T08:48:31.536Z,99.90
2023-03-29T08:51:40.521Z,99.90
2023-03-29T08:54:47.366Z,99.90
2023-03-29T08:57:51.701Z,99.90
2023-03-29T09:00:55.319Z,99.90
2023-03-29T09:04:04.008Z,99.90
2023-03-29T09:07:09.585Z,99.90
2023-03-29T09:10:17.049Z,99.90
2023-03-29T09:13:53.046Z,99.90
2023-03-29T09:17:13.446Z,99.90
2023-03-29T09:20:33.944Z,99.90
2023-03-29T09:24:07.679Z,99.20
2023-03-29T09:27:32.397Z,99.10
2023-03-29T09:30:50.765Z,99.90
2023-03-29T09:34:01.640Z,99.90
2023-03-29T09:37:08.897Z,99.90
2023-03-29T09:40:32.904Z,99.90
2023-03-29T09:43:41.129Z,98.30
2023-03-29T09:46:47.500Z,99.90
2023-03-29T09:49:55.255Z,99.90
2023-03-29T09:52:57.244Z,99.90
2023-03-29T09:56:01.440Z,99.90
2023-03-29T09:59:03.178Z,99.90
2023-03-29T10:02:11.982Z,99.90
2023-03-29T10:05:18.038Z,99.50
2023-03-29T10:08:27.348Z,99.20
2023-03-29T10:11:32.887Z,99.40
2023-03-29T10:14:48.259Z,99.90
2023-03-29T10:17:57.362Z,99.00
2023-03-29T10:21:02.562Z,99.20
2023-03-29T10:24:04.938Z,98.00
2023-03-29T10:27:11.741Z,98.30
2023-03-29T10:30:22.433Z,96.70
2023-03-29T10:33:27.864Z,96.50
2023-03-29T10:36:30.379Z,97.80
2023-03-29T10:39:35.801Z,98.20
2023-03-29T10:42:49.951Z,97.50
2023-03-29T10:45:56.843Z,96.50
2023-03-29T10:49:04.483Z,98.00
2023-03-29T10:52:07.380Z,97.60
2023-03-29T10:55:13.905Z,97.60
2023-03-29T10:58:15.613Z,97.30
2023-03-29T11:01:31.729Z,98.40
2023-03-29T11:04:39.332Z,96.60
2023-03-29T11:08:06.026Z,97.50
2023-03-29T11:11:14.520Z,97.30
2023-03-29T11:14:46.175Z,97.40
2023-03-29T11:18:25.183Z,97.00
2023-03-29T11:22:00.671Z,98.40
2023-03-29T11:25:05.562Z,97.30
2023-03-29T11:28:28.754Z,99.70
2023-03-29T11:31:58.002Z,97.40
2023-03-29T11:35:08.860Z,98.00
2023-03-29T11:38:33.590Z,98.20
2023-03-29T11:41:41.135Z,97.60
2023-03-29T11:44:47.110Z,98.80
2023-03-29T11:47:51.459Z,99.40
2023-03-29T11:51:06.809Z,99.60
2023-03-29T11:54:18.024Z,97.50
2023-03-29T11:57:40.653Z,98.10
2023-03-29T12:01:03.072Z,97.20
2023-03-29T12:04:23.101Z,97.10
2023-03-29T12:07:29.563Z,97.40
2023-03-29T12:10:54.506Z,98.40
2023-03-29T12:14:35.800Z,98.70
2023-03-29T12:17:43.821Z,97.10
2023-03-29T12:20:51.456Z,99.40
2023-03-29T12:23:53.578Z,98.90
2023-03-29T12:27:10.211Z,99.70
2023-03-29T12:30:23.744Z,98.30
2023-03-29T12:33:34.614Z,97.30
2023-03-29T12:36:50.841Z,98.80
2023-03-29T12:39:53.631Z,97.90
2023-03-29T12:43:05.889Z,98.80
2023-03-29T12:46:15.047Z,96.80
2023-03-29T12:49:33.953Z,98.40
2023-03-29T12:52:36.930Z,96.50
2023-03-29T12:55:44.637Z,98.90
2023-03-29T12:59:10.794Z,97.50
2023-03-29T13:02:16.032Z,97.40
2023-03-29T13:05:31.111Z,98.00
2023-03-29T13:08:34.883Z,96.70
2023-03-29T13:11:42.671Z,98.20
2023-03-29T13:14:55.847Z,98.00
2023-03-29T13:18:22.679Z,97.50
2023-03-29T13:22:02.308Z,96.60
2023-03-29T13:25:21.687Z,96.70
2023-03-29T13:28:46.710Z,98.40
2023-03-29T13:32:07.278Z,97.00
2023-03-29T13:35:37.679Z,97.30
2023-03-29T13:38:52.350Z,98.00
2023-03-29T13:42:06.253Z,97.90
2023-03-29T13:45:23.137Z,99.80
2023-03-29T13:48:31.963Z,98.10
2023-03-29T13:51:39.128Z,98.70
2023-03-29T13:54:53.734Z,98.50
2023-03-29T13:58:06.231Z,99.10
2023-03-29T14:01:13.834Z,98.30
2023-03-29T14:04:30.452Z,98.30
2023-03-29T14:07:37.262Z,98.10
2023-03-29T14:10:41.755Z,99.20
2023-03-29T14:13:43.803Z,99.30
2023-03-29T14:16:46.095Z,99.80
2023-03-29T14:19:48.947Z,99.50
2023-03-29T14:22:51.540Z,99.20
2023-03-29T14:25:53.510Z,99.40
2023-03-29T14:28:57.977Z,98.90
2023-03-29T14:32:11.542Z,98.40
2023-03-29T14:35:13.424Z,97.00
2023-03-29T14:38:16.495Z,99.10
2023-03-29T14:41:18.576Z,99.10
2023-03-29T14:44:22.644Z,99.10
2023-03-29T14:47:28.521Z,98.60
2023-03-29T14:50:31.454Z,98.30
2023-03-29T14:53:34.584Z,99.10
2023-03-29T14:56:36.693Z,99.30
2023-03-29T14:59:41.832Z,99.30
2023-03-29T15:02:54.801Z,99.30
2023-03-29T15:06:02.494Z,98.00
2023-03-29T15:09:06.741Z,98.60
2023-03-29T15:12:15.843Z,99.50
2023-03-29T15:15:18.053Z,97.50
2023-03-29T15:18:27.271Z,99.00
2023-03-29T15:21:34.903Z,98.00
2023-03-29T15:24:42.964Z,97.10
2023-03-29T15:27:47.675Z,97.20
2023-03-29T15:31:04.583Z,98.30
2023-03-29T15:34:14.223Z,98.30
2023-03-29T15:37:16.307Z,97.10
2023-03-29T15:40:23.332Z,98.30
2023-03-29T15:43:25.773Z,97.20
2023-03-29T15:46:27.684Z,97.80
2023-03-29T15:49:29.479Z,98.00
2023-03-29T15:52:31.849Z,97.90
2023-03-29T15:55:33.703Z,98.00
2023-03-29T15:58:36.944Z,98.00
2023-03-29T16:01:39.392Z,97.80
2023-03-29T16:04:41.263Z,97.70
2023-03-29T16:07:43.135Z,97.90
2023-03-29T16:10:45.047Z,97.70
2023-03-29T16:13:46.787Z,97.80
2023-03-29T16:16:49.222Z,97.90
2023-03-29T16:19:51.696Z,97.80
2023-03-29T16:22:54.255Z,97.90
2023-03-29T16:25:56.152Z,97.90
2023-03-29T16:28:58.100Z,97.90
2023-03-29T16:32:00.199Z,98.00
2023-03-29T16:35:02.092Z,98.00
2023-03-29T16:38:04.555Z,98.00
2023-03-29T16:41:07.218Z,97.70
2023-03-29T16:44:15.293Z,97.80
2023-03-29T16:47:17.217Z,96.70
2023-03-29T16:50:20.144Z,97.80
2023-03-29T16:53:23.197Z,97.50
2023-03-29T16:56:25.106Z,97.90
2023-03-29T16:59:27.287Z,98.00
2023-03-29T17:02:29.154Z,98.00
2023-03-29T17:05:31.882Z,98.00
2023-03-29T17:08:34.030Z,97.90
2023-03-29T17:11:36.496Z,97.90
2023-03-29T17:14:38.554Z,98.10
2023-03-29T17:17:41.080Z,98.00
2023-03-29T17:20:43.204Z,98.00
2023-03-29T17:23:44.999Z,98.00
2023-03-29T17:26:46.741Z,98.00
2023-03-29T17:29:48.956Z,98.00
2023-03-29T17:32:52.449Z,97.90
2023-03-29T17:35:54.343Z,97.80
2023-03-29T17:38:56.494Z,97.70
2023-03-29T17:41:58.255Z,97.60
2023-03-29T17:45:00.455Z,98.00
2023-03-29T17:48:05.550Z,97.60
2023-03-29T17:51:08.114Z,97.60
2023-03-29T17:54:09.953Z,97.60
2023-03-29T17:57:11.716Z,97.50
2023-03-29T18:00:14.580Z,97.50
2023-03-29T18:03:16.699Z,97.40
2023-03-29T18:06:20.634Z,97.60
2023-03-29T18:09:22.387Z,97.30
2023-03-29T18:12:28.757Z,97.80
2023-03-29T18:15:31.013Z,96.90
2023-03-29T18:18:34.130Z,97.60
2023-03-29T18:21:36.897Z,97.30
2023-03-29T18:24:38.684Z,97.70
2023-03-29T18:27:40.611Z,97.50
2023-03-29T18:30:42.364Z,97.50
2023-03-29T18:33:44.240Z,97.60
2023-03-29T18:36:46.777Z,97.60
2023-03-29T18:39:48.791Z,97.60
2023-03-29T18:42:51.824Z,97.70
2023-03-29T18:45:53.719Z,97.70
2023-03-29T18:48:57.667Z,97.90
2023-03-29T18:51:59.804Z,98.00
2023-03-29T18:55:01.710Z,98.10
2023-03-29T18:58:03.515Z,98.20
2023-03-29T19:01:06.502Z,98.30
2023-03-29T19:04:08.294Z,98.20
2023-03-29T19:07:10.020Z,98.20
2023-03-29T19:10:12.169Z,98.10
2023-03-29T19:13:14.204Z,98.00
2023-03-29T19:16:16.592Z,98.00
2023-03-29T19:19:19.228Z,98.00
2023-03-29T19:22:20.925Z,97.90
2023-03-29T19:25:22.849Z,98.00
2023-03-29T19:28:25.940Z,98.00
2023-03-29T19:31:28.050Z,98.10
2023-03-29T19:34:30.767Z,98.20
2023-03-29T19:37:32.503Z,98.20
2023-03-29T19:40:34.404Z,98.40
2023-03-29T19:43:36.360Z,98.50
2023-03-29T19:46:38.184Z,98.70
2023-03-29T19:49:40.003Z,98.90
2023-03-29T19:52:43.015Z,99.00
2023-03-29T19:55:45.440Z,99.10
2023-03-29T19:58:48.184Z,99.30
2023-03-29T20:01:53.295Z,99.20
2023-03-29T20:04:55.198Z,99.20
2023-03-29T20:07:57.052Z,99.30
2023-03-29T20:11:00.032Z,99.30
2023-03-29T20:14:01.812Z,99.20
2023-03-29T20:17:04.484Z,99.40
2023-03-29T20:20:10.321Z,99.40
2023-03-29T20:23:12.301Z,99.40
2023-03-29T20:26:14.262Z,99.60
2023-03-29T20:29:16.418Z,99.70
2023-03-29T20:32:18.187Z,99.60
2023-03-29T20:35:20.041Z,99.70
2023-03-29T20:38:22.019Z,99.90
2023-03-29T20:41:24.445Z,99.90
2023-03-29T20:44:28.424Z,99.90
2023-03-29T20:47:30.210Z,99.90
2023-03-29T20:50:32.035Z,99.90
2023-03-29T20:53:34.557Z,99.90
2023-03-29T20:56:39.570Z,99.90
2023-03-29T20:59:44.766Z,99.90
2023-03-29T21:02:47.173Z,99.90
2023-03-29T21:05:54.297Z,99.90
2023-03-29T21:08:57.652Z,99.90
2023-03-29T21:11:59.528Z,99.90
2023-03-29T21:15:02.465Z,99.90
2023-03-29T21:18:04.638Z,99.90
2023-03-29T21:21:08.368Z,99.90
2023-03-29T21:24:13.495Z,99.90
2023-03-29T21:27:15.501Z,99.90
2023-03-29T21:30:17.596Z,99.90
2023-03-29T21:33:19.373Z,99.90
2023-03-29T21:36:21.336Z,99.90
2023-03-29T21:39:26.805Z,99.90
2023-03-29T21:42:28.642Z,99.90
2023-03-29T21:45:30.639Z,99.90
2023-03-29T21:48:32.831Z,99.90
2023-03-29T21:51:34.757Z,99.90
2023-03-29T21:54:36.544Z,99.90
2023-03-29T21:57:38.409Z,99.90
2023-03-29T22:00:40.316Z,99.90
2023-03-29T22:03:42.362Z,99.90
2023-03-29T22:06:44.269Z,99.90
2023-03-29T22:09:46.530Z,99.90
2023-03-29T22:12:48.881Z,99.90
2023-03-29T22:16:03.565Z,99.90
2023-03-29T22:19:06.306Z,99.90
2023-03-29T22:22:13.425Z,99.90
2023-03-29T22:25:17.672Z,99.90
2023-03-29T22:28:19.447Z,99.90
2023-03-29T22:31:23.032Z,99.90
2023-03-29T22:34:24.958Z,99.90
2023-03-29T22:37:26.957Z,99.90
2023-03-29T22:40:30.795Z,99.90
2023-03-29T22:43:32.544Z,99.90
2023-03-29T22:46:34.416Z,99.90
2023-03-29T22:49:36.419Z,99.90
2023-03-29T22:52:38.227Z,99.90
2023-03-29T22:55:40.047Z,99.90
2023-03-29T22:58:42.818Z,99.90
2023-03-29T23:01:44.625Z,99.90
2023-03-29T23:04:46.884Z,99.90
2023-03-29T23:07:48.927Z,99.90
2023-03-29T23:10:51.126Z,99.90
2023-03-29T23:13:54.003Z,99.90
2023-03-29T23:16:55.851Z,99.90
2023-03-29T23:19:57.958Z,99.90
2023-03-29T23:23:00.317Z,99.90
2023-03-29T23:26:02.556Z,99.90
2023-03-29T23:29:04.317Z,99.90
2023-03-29T23:32:06.570Z,99.90
2023-03-29T23:35:08.765Z,99.90
2023-03-29T23:38:10.501Z,99.90
2023-03-29T23:41:13.448Z,99.90
2023-03-29T23:44:15.378Z,99.90
2023-03-29T23:47:17.339Z,99.90
2023-03-29T23:50:19.189Z,99.90
2023-03-29T23:53:21.034Z,99.90
2023-03-29T23:56:23.186Z,99.90
2023-03-29T23:59:28.862Z,99.90
